Time;durP1;ratioP1;P1;durP2;ratioP2;P2;SDS_P1;SDS_P2;PMS_P1;PMS_P2;Temp;Humidity;BMP_temperature;BMP_pressure;BME280_temperature;BME280_humidity;BME280_pressure;Samples;Min_cycle;Max_cycle;Signal;HPM_P1;HPM_P2
2022/06/30 00:01:47;;;;;;;3.63;0.90;;;;;;;14.00;71.40;100171.72;5106665;28;20027;-76
2022/06/30 00:04:13;;;;;;;2.08;0.90;;;;;;;13.99;71.27;100170.09;5108229;28;20042;-76
2022/06/30 00:06:38;;;;;;;4.65;1.00;;;;;;;13.94;71.07;100172.22;5108554;28;20047;-76
2022/06/30 00:09:04;;;;;;;2.58;0.90;;;;;;;13.92;71.43;100182.88;5110034;28;20020;-76
2022/06/30 00:11:29;;;;;;;6.22;1.05;;;;;;;13.90;71.33;100188.81;5108026;28;20039;-76
2022/06/30 00:13:55;;;;;;;3.67;0.77;;;;;;;13.84;71.61;100187.28;5094072;28;20058;-76
2022/06/30 00:16:20;;;;;;;2.28;0.70;;;;;;;13.84;71.36;100184.50;5106823;28;20433;-76
2022/06/30 00:18:46;;;;;;;2.35;0.60;;;;;;;13.79;71.54;100187.41;5116291;28;20523;-76
2022/06/30 00:21:11;;;;;;;1.63;0.60;;;;;;;13.74;71.50;100182.84;5114278;28;20034;-76
2022/06/30 00:23:37;;;;;;;1.90;0.80;;;;;;;13.73;71.81;100180.34;5116447;28;20023;-76
2022/06/30 00:26:02;;;;;;;2.13;0.70;;;;;;;13.70;71.76;100175.41;5109138;28;20051;-76
2022/06/30 00:28:28;;;;;;;3.90;0.88;;;;;;;13.69;71.49;100179.38;5097350;28;20042;-76
2022/06/30 00:30:53;;;;;;;3.20;0.80;;;;;;;13.68;71.57;100191.66;5107756;28;20032;-76
2022/06/30 00:33:19;;;;;;;3.33;0.70;;;;;;;13.62;72.20;100194.63;5116381;28;20392;-76
2022/06/30 00:35:44;;;;;;;2.75;0.82;;;;;;;13.59;72.42;100189.66;5116298;28;20031;-77
2022/06/30 00:38:10;;;;;;;1.45;0.60;;;;;;;13.59;71.72;100183.25;5096100;28;20020;-76
2022/06/30 00:40:41;;;;;;;4.22;0.75;;;;;;;13.56;72.21;100183.91;5109638;28;20502;-77
2022/06/30 00:43:07;;;;;;;1.92;0.80;;;;;;;13.55;72.03;100193.44;5109246;28;20059;-76
2022/06/30 00:45:33;;;;;;;1.75;0.45;;;;;;;13.51;72.93;100184.88;5116172;28;20510;-76
2022/06/30 00:48:01;;;;;;;3.33;0.70;;;;;;;13.50;72.58;100186.00;5107252;28;20023;-77
2022/06/30 00:50:27;;;;;;;2.22;0.75;;;;;;;13.45;72.77;100180.56;5106809;28;20027;-77
2022/06/30 00:52:53;;;;;;;2.50;0.60;;;;;;;13.44;72.68;100172.53;5090973;28;20039;-76
2022/06/30 00:55:19;;;;;;;2.53;0.65;;;;;;;13.41;72.86;100174.00;5105116;28;20050;-76
2022/06/30 00:57:45;;;;;;;1.63;0.60;;;;;;;13.40;73.09;100175.16;5105498;28;20027;-76
2022/06/30 01:00:14;;;;;;;2.85;0.70;;;;;;;13.37;72.87;100168.25;5093757;28;20539;-76
2022/06/30 01:02:40;;;;;;;2.35;0.60;;;;;;;13.38;72.99;100169.06;5111923;28;20061;-76
2022/06/30 01:05:06;;;;;;;2.38;0.52;;;;;;;13.35;72.82;100175.28;5106605;28;20536;-76
2022/06/30 01:07:32;;;;;;;2.05;0.70;;;;;;;13.33;73.37;100178.38;5116022;28;20471;-76
2022/06/30 01:12:45;;;;;;;2.33;0.55;;;;;;;13.28;73.64;100163.75;5112937;28;20027;-76
2022/06/30 01:15:16;;;;;;;1.75;0.80;;;;;;;13.25;73.32;100158.78;5104875;28;20088;-76
2022/06/30 01:17:42;;;;;;;2.70;0.80;;;;;;;13.22;73.44;100159.44;5093575;28;20028;-76
2022/06/30 01:20:08;;;;;;;2.13;0.60;;;;;;;13.18;73.59;100162.06;5105307;28;20039;-76
2022/06/30 01:22:33;;;;;;;1.52;0.70;;;;;;;13.17;73.45;100165.97;5105055;28;20032;-76
2022/06/30 01:24:59;;;;;;;2.15;0.68;;;;;;;13.16;73.63;100167.94;5115899;28;20032;-76
2022/06/30 01:27:24;;;;;;;2.38;0.73;;;;;;;13.16;73.19;100167.94;5115889;28;20027;-76
2022/06/30 01:29:50;;;;;;;2.60;0.63;;;;;;;13.13;73.65;100178.91;5115810;28;20419;-76
2022/06/30 01:32:16;;;;;;;2.67;0.57;;;;;;;13.11;73.66;100170.03;5115673;28;20027;-76
2022/06/30 01:34:42;;;;;;;4.20;0.60;;;;;;;13.08;73.76;100176.25;5090209;28;20549;-76
2022/06/30 01:37:07;;;;;;;2.72;0.70;;;;;;;13.05;74.12;100174.09;5092066;28;20476;-77
2022/06/30 01:39:33;;;;;;;2.92;0.60;;;;;;;13.06;74.07;100173.78;5082704;28;20036;-76
2022/06/30 01:41:58;;;;;;;3.90;0.77;;;;;;;13.05;74.09;100168.53;5119696;28;20084;-77
2022/06/30 01:44:24;;;;;;;1.40;0.57;;;;;;;13.03;74.02;100177.19;5110558;28;20057;-76
2022/06/30 01:46:49;;;;;;;2.15;0.73;;;;;;;13.01;74.27;100171.16;5119522;28;20399;-77
2022/06/30 01:49:15;;;;;;;2.45;0.60;;;;;;;12.99;74.04;100173.41;5094547;28;20059;-77
2022/06/30 01:51:40;;;;;;;3.05;0.95;;;;;;;12.96;74.18;100165.69;5090865;28;20042;-77
2022/06/30 01:54:08;;;;;;;4.38;0.95;;;;;;;12.96;74.74;100171.28;5119503;28;20387;-76
2022/06/30 01:56:36;;;;;;;2.50;0.65;;;;;;;12.96;74.18;100176.84;5097224;28;20044;-76
2022/06/30 01:59:04;;;;;;;2.90;0.73;;;;;;;12.95;74.32;100169.59;5108426;28;20062;-77
2022/06/30 02:01:29;;;;;;;2.08;0.70;;;;;;;12.94;74.50;100165.19;5100773;27;20283;-77
2022/06/30 02:03:55;;;;;;;5.18;0.90;;;;;;;12.91;74.22;100157.47;5098292;28;20031;-76
2022/06/30 02:06:20;;;;;;;2.17;0.75;;;;;;;12.85;74.50;100159.56;5109498;28;20092;-77
2022/06/30 02:08:45;;;;;;;3.60;0.80;;;;;;;12.83;74.78;100170.19;5110953;28;20032;-77
2022/06/30 02:11:11;;;;;;;2.85;0.70;;;;;;;12.83;74.64;100166.59;5112104;28;20031;-77
2022/06/30 02:13:36;;;;;;;3.50;0.70;;;;;;;12.82;74.88;100165.78;5094912;28;20035;-77
2022/06/30 02:16:02;;;;;;;2.35;0.77;;;;;;;12.82;74.53;100165.78;5097230;27;20031;-77
2022/06/30 02:18:27;;;;;;;2.45;0.70;;;;;;;12.79;74.88;100171.13;5111969;28;20392;-77
2022/06/30 02:20:53;;;;;;;4.75;1.00;;;;;;;12.74;74.50;100153.41;5093474;28;20051;-77
2022/06/30 02:23:18;;;;;;;2.40;0.60;;;;;;;12.73;74.53;100151.78;5116825;28;20080;-77
2022/06/30 02:25:44;;;;;;;3.03;1.00;;;;;;;12.70;74.68;100149.63;5111570;28;20035;-77
2022/06/30 02:28:09;;;;;;;2.42;0.73;;;;;;;12.69;75.10;100156.31;5099019;28;20031;-77
2022/06/30 02:30:35;;;;;;;3.97;0.65;;;;;;;12.64;74.71;100159.22;5110708;28;20023;-76
2022/06/30 02:33:01;;;;;;;3.60;0.80;;;;;;;12.65;75.14;100157.28;5108031;28;20039;-77
2022/06/30 02:35:26;;;;;;;2.10;0.55;;;;;;;12.63;75.16;100154.81;5093489;28;20020;-77
2022/06/30 02:37:53;;;;;;;3.70;0.85;;;;;;;12.59;75.02;100151.03;5111615;28;20035;-76
2022/06/30 02:40:19;;;;;;;1.70;0.70;;;;;;;12.59;75.39;100151.03;5118441;28;20032;-77
2022/06/30 02:42:44;;;;;;;3.92;0.82;;;;;;;12.55;75.03;100144.44;5095650;28;20100;-76
2022/06/30 02:45:10;;;;;;;2.88;0.90;;;;;;;12.56;74.93;100139.66;5120801;27;20036;-77
2022/06/30 02:47:37;;;;;;;2.30;0.70;;;;;;;12.51;75.26;100146.22;5092849;28;20028;-76
2022/06/30 02:50:04;;;;;;;6.45;0.88;;;;;;;12.50;75.12;100147.34;5118289;28;20042;-77
2022/06/30 02:52:33;;;;;;;1.98;0.57;;;;;;;12.46;75.08;100152.72;5115635;28;20028;-77
2022/06/30 02:54:59;;;;;;;3.50;0.73;;;;;;;12.43;75.32;100145.00;5091460;28;20057;-76
2022/06/30 02:57:24;;;;;;;2.67;0.60;;;;;;;12.41;75.63;100138.91;5119893;27;20489;-77
2022/06/30 02:59:50;;;;;;;3.90;0.60;;;;;;;12.41;75.54;100138.09;5120927;27;20039;-77
2022/06/30 03:02:16;;;;;;;4.40;0.80;;;;;;;12.42;75.10;100137.75;5112599;28;20146;-76
2022/06/30 03:04:41;;;;;;;2.78;0.70;;;;;;;12.36;75.23;100129.84;5111435;28;20028;-77
2022/06/30 03:07:07;;;;;;;7.15;0.65;;;;;;;12.35;75.37;100123.47;5109090;28;20488;-77
2022/06/30 03:09:33;;;;;;;2.38;0.90;;;;;;;12.32;75.17;100126.06;5117583;28;20031;-76
2022/06/30 03:11:59;;;;;;;2.92;0.70;;;;;;;12.28;75.46;100131.44;5098319;28;20384;-76
2022/06/30 03:14:24;;;;;;;1.60;0.60;;;;;;;12.27;75.47;100138.13;5090426;28;20035;-76
2022/06/30 03:16:50;;;;;;;3.33;0.50;;;;;;;12.26;75.48;100137.31;5112642;28;20475;-76
2022/06/30 03:19:15;;;;;;;2.30;0.70;;;;;;;12.23;75.42;100142.69;5117469;28;20024;-76
2022/06/30 03:21:41;;;;;;;3.60;0.82;;;;;;;12.20;75.49;100143.31;5117658;28;20043;-77
2022/06/30 03:24:07;;;;;;;3.92;0.80;;;;;;;12.18;75.86;100148.38;5117605;28;20028;-77
2022/06/30 03:26:32;;;;;;;2.38;0.77;;;;;;;12.18;75.84;100148.38;5110743;28;20019;-77
2022/06/30 03:28:58;;;;;;;1.40;0.60;;;;;;;12.17;75.63;100141.97;5109136;28;20407;-77
2022/06/30 03:31:23;;;;;;;1.23;0.70;;;;;;;12.14;75.61;100150.94;5112002;28;20027;-77
2022/06/30 03:33:49;;;;;;;2.65;0.80;;;;;;;12.11;75.76;100148.78;5107909;28;20338;-77
2022/06/30 03:36:14;;;;;;;1.98;0.80;;;;;;;12.09;75.59;100137.19;5117414;28;20024;-77
2022/06/30 03:38:40;;;;;;;2.55;0.77;;;;;;;12.08;76.03;100141.06;5110012;28;20024;-77
2022/06/30 03:41:05;;;;;;;2.53;0.65;;;;;;;12.06;76.37;100137.78;5117671;28;20433;-76
2022/06/30 03:43:31;;;;;;;2.20;0.70;;;;;;;12.02;76.23;100143.16;5092786;28;20023;-77
2022/06/30 03:45:56;;;;;;;3.15;0.82;;;;;;;12.01;75.96;100143.47;5116895;28;20042;-77
2022/06/30 03:48:22;;;;;;;4.15;0.90;;;;;;;11.97;76.53;100134.09;5092218;28;20024;-77
2022/06/30 03:50:47;;;;;;;3.60;0.80;;;;;;;11.98;76.36;100136.59;5117229;28;20031;-76
2022/06/30 03:53:13;;;;;;;3.15;0.70;;;;;;;11.95;76.23;100131.63;5117363;27;20058;-77
2022/06/30 03:55:39;;;;;;;3.58;0.77;;;;;;;11.94;76.45;100140.28;5117029;28;20496;-76
2022/06/30 03:58:06;;;;;;;2.70;0.60;;;;;;;11.93;76.36;100155.34;5120572;27;20038;-77
2022/06/30 04:00:32;;;;;;;4.28;0.80;;;;;;;11.92;76.39;100136.97;5103131;28;20157;-77
2022/06/30 04:02:58;;;;;;;2.90;0.90;;;;;;;11.93;76.65;100150.59;5116972;28;20036;-77
2022/06/30 04:05:23;;;;;;;2.88;0.68;;;;;;;11.91;76.20;100149.25;5106406;28;20104;-76
2022/06/30 04:07:49;;;;;;;5.20;1.17;;;;;;;11.89;76.36;100151.53;5092907;28;20027;-77
2022/06/30 04:10:14;;;;;;;1.58;0.80;;;;;;;11.85;76.44;100154.94;5116496;28;20036;-77
2022/06/30 04:12:40;;;;;;;3.17;0.77;;;;;;;11.85;76.49;100162.44;5107241;28;20151;-76
2022/06/30 04:15:06;;;;;;;2.65;0.80;;;;;;;11.85;76.70;100163.28;5106858;28;20392;-77
2022/06/30 04:17:34;;;;;;;2.97;0.60;;;;;;;11.88;76.63;100161.84;5109154;28;20027;-77
2022/06/30 04:20:04;;;;;;;4.60;0.80;;;;;;;11.80;77.16;100163.34;5082223;28;20050;-77
2022/06/30 04:22:30;;;;;;;4.32;1.02;;;;;;;11.79;77.02;100167.28;5114012;28;20092;-77
2022/06/30 04:24:55;;;;;;;1.65;0.55;;;;;;;11.78;77.04;100159.22;5091688;28;20102;-77
2022/06/30 04:27:21;;;;;;;4.68;0.70;;;;;;;11.76;77.23;100162.34;5108769;28;20043;-77
2022/06/30 04:29:47;;;;;;;2.08;0.70;;;;;;;11.75;77.10;100160.66;5095711;28;20032;-77
2022/06/30 04:34:56;;;;;;;1.38;0.50;;;;;;;11.72;77.01;100160.47;5112072;28;20096;-77
2022/06/30 04:37:22;;;;;;;3.28;0.60;;;;;;;11.71;76.81;100164.41;5088891;28;20025;-77
2022/06/30 04:39:47;;;;;;;4.55;0.85;;;;;;;11.70;77.05;100168.31;5110068;28;20039;-76
2022/06/30 04:42:13;;;;;;;1.80;0.50;;;;;;;11.69;76.75;100167.47;5108857;28;20156;-77
2022/06/30 04:44:39;;;;;;;1.88;0.75;;;;;;;11.66;76.87;100167.28;5108936;28;20031;-76
2022/06/30 04:47:04;;;;;;;2.75;0.63;;;;;;;11.67;76.96;100166.16;5106032;28;20027;-77
2022/06/30 04:49:30;;;;;;;3.17;0.68;;;;;;;11.64;77.03;100170.38;5093939;28;20028;-77
2022/06/30 04:51:56;;;;;;;3.45;1.00;;;;;;;11.63;77.31;100168.72;5116278;28;20031;-76
2022/06/30 04:54:21;;;;;;;2.15;0.98;;;;;;;11.61;77.28;100168.22;5116114;28;20027;-76
2022/06/30 04:56:47;;;;;;;4.55;0.70;;;;;;;11.60;77.13;100180.47;5098076;28;20035;-77
2022/06/30 04:59:12;;;;;;;4.13;0.95;;;;;;;11.58;77.47;100161.31;5115752;28;20067;-77
2022/06/30 05:01:38;;;;;;;4.68;1.17;;;;;;;11.59;77.11;100162.16;5108306;28;20032;-76
2022/06/30 05:04:03;;;;;;;2.63;0.70;;;;;;;11.58;77.36;100161.31;5088126;28;20476;-77
2022/06/30 05:06:29;;;;;;;2.05;0.75;;;;;;;11.58;77.66;100164.09;5117683;28;20036;-77
2022/06/30 05:08:54;;;;;;;3.90;0.88;;;;;;;11.58;77.74;100166.03;5116084;28;20092;-77
2022/06/30 05:11:20;;;;;;;1.50;0.52;;;;;;;11.56;77.86;100162.75;5110847;28;20040;-77
2022/06/30 05:13:45;;;;;;;1.73;0.63;;;;;;;11.58;78.19;100155.75;5096366;28;20427;-76
2022/06/30 05:16:11;;;;;;;2.63;0.82;;;;;;;11.60;78.24;100156.25;5093395;28;20027;-76
2022/06/30 05:18:36;;;;;;;2.85;0.57;;;;;;;11.66;77.86;100168.09;5091400;28;20031;-77
2022/06/30 05:21:02;;;;;;;3.17;0.70;;;;;;;11.63;78.64;100172.31;5113362;28;20034;-77
2022/06/30 05:23:27;;;;;;;2.58;0.70;;;;;;;11.70;78.89;100177.50;5120316;28;20027;-77
2022/06/30 05:28:36;;;;;;;2.40;0.90;;;;;;;11.75;79.78;100173.75;5109041;28;20391;-76
2022/06/30 05:31:02;;;;;;;3.25;0.93;;;;;;;11.77;80.28;100180.66;5120797;27;20027;-76
2022/06/30 05:33:27;;;;;;;2.97;1.10;;;;;;;11.83;81.32;100186.94;5114415;27;20035;-77
2022/06/30 05:35:53;;;;;;;4.45;0.73;;;;;;;11.89;81.61;100182.13;5108786;28;20088;-77
2022/06/30 05:38:19;;;;;;;3.25;1.02;;;;;;;11.92;84.65;100176.75;5093366;27;20028;-76
2022/06/30 05:40:47;;;;;;;4.10;1.10;;;;;;;12.02;84.72;100181.28;5119840;27;20032;-77
2022/06/30 05:43:14;;;;;;;4.65;1.20;;;;;;;12.12;90.75;100174.66;5093972;28;20075;-76
2022/06/30 05:45:42;;;;;;;3.88;0.95;;;;;;;12.27;89.80;100171.56;5110796;28;20051;-76
2022/06/30 05:48:08;;;;;;;7.45;1.58;;;;;;;12.47;94.74;100164.69;5119343;28;20023;-76
2022/06/30 05:50:33;;;;;;;4.70;1.10;;;;;;;12.66;90.00;100173.69;5112701;28;20119;-76
2022/06/30 05:52:59;;;;;;;1.88;0.88;;;;;;;12.87;85.46;100187.94;5121701;27;20479;-76
2022/06/30 05:55:24;;;;;;;3.97;0.80;;;;;;;13.12;83.59;100169.72;5110939;28;20071;-77
2022/06/30 05:58:01;;;;;;;4.45;0.88;;;;;;;13.39;81.14;100171.53;5119378;27;20035;-77
2022/06/30 06:00:27;;;;;;;2.47;0.80;;;;;;;13.69;79.48;100171.00;5097356;28;20057;-77
2022/06/30 06:02:53;;;;;;;3.90;1.13;;;;;;;13.97;78.37;100171.56;5111499;28;20448;-77
2022/06/30 06:05:18;;;;;;;5.30;1.27;;;;;;;14.30;78.92;100158.78;5109201;28;20035;-77
2022/06/30 06:07:44;;;;;;;4.38;0.93;;;;;;;14.63;76.97;100171.50;5097296;28;20652;-76
2022/06/30 06:10:10;;;;;;;7.28;1.33;;;;;;;14.95;76.07;100165.34;5118962;28;20028;-76
2022/06/30 06:12:35;;;;;;;5.22;0.73;;;;;;;15.29;75.06;100168.41;5112510;28;20116;-76
2022/06/30 06:15:01;;;;;;;6.70;1.13;;;;;;;15.64;74.41;100167.09;5107868;28;20023;-73
2022/06/30 06:17:29;;;;;;;3.72;0.77;;;;;;;16.00;72.72;100173.38;5118907;28;20058;-79
2022/06/30 06:19:54;;;;;;;5.88;1.17;;;;;;;16.29;71.57;100176.13;5090441;28;20538;-68
2022/06/30 06:22:20;;;;;;;3.65;0.77;;;;;;;16.66;71.03;100175.50;5118044;28;20047;-68
2022/06/30 06:24:45;;;;;;;4.13;0.90;;;;;;;17.03;70.94;100170.91;5094340;28;20036;-78
2022/06/30 06:27:11;;;;;;;8.05;1.13;;;;;;;17.38;69.74;100164.91;5083292;28;20535;-72
2022/06/30 06:29:36;;;;;;;7.32;1.15;;;;;;;17.70;69.09;100165.19;5119161;27;20019;-72
2022/06/30 06:32:02;;;;;;;3.65;0.98;;;;;;;18.02;68.30;100167.06;5094251;28;20100;-72
2022/06/30 06:34:27;;;;;;;5.30;1.35;;;;;;;18.31;67.49;100170.78;5093556;28;20107;-72
2022/06/30 06:36:53;;;;;;;8.93;1.20;;;;;;;18.53;68.06;100167.44;5101217;27;20528;-72
2022/06/30 06:39:18;;;;;;;6.40;1.02;;;;;;;18.85;66.48;100166.78;5081987;28;20032;-72
2022/06/30 06:41:44;;;;;;;5.60;1.42;;;;;;;19.06;65.73;100169.38;5112005;28;20411;-72
2022/06/30 06:44:09;;;;;;;5.47;1.23;;;;;;;19.27;64.25;100175.56;5119444;27;20039;-72
2022/06/30 06:46:35;;;;;;;7.55;1.33;;;;;;;19.46;63.91;100174.06;5099830;28;20031;-72
2022/06/30 06:49:02;;;;;;;8.75;1.30;;;;;;;19.57;63.83;100178.78;5090524;28;20031;-73
2022/06/30 06:51:28;;;;;;;8.32;1.40;;;;;;;19.66;64.36;100180.63;5097867;27;20027;-72
2022/06/30 06:53:53;;;;;;;6.13;1.02;;;;;;;19.70;64.22;100182.38;5099896;28;20030;-72
2022/06/30 06:56:19;;;;;;;7.43;1.02;;;;;;;19.77;63.55;100181.72;5094728;28;20112;-73
2022/06/30 06:58:44;;;;;;;6.85;1.60;;;;;;;19.77;63.39;100188.16;5082567;28;20027;-73
2022/06/30 07:01:10;;;;;;;5.07;1.08;;;;;;;19.72;64.12;100184.81;5091991;28;20070;-73
2022/06/30 07:03:36;;;;;;;11.75;1.40;;;;;;;19.68;64.16;100190.38;5099725;28;20040;-73
2022/06/30 07:06:01;;;;;;;8.13;1.63;;;;;;;19.63;64.20;100187.78;5076197;27;20028;-72
2022/06/30 07:08:27;;;;;;;8.70;1.25;;;;;;;19.57;64.15;100183.59;5077899;28;20020;-72
2022/06/30 07:10:55;;;;;;;8.43;1.40;;;;;;;19.49;64.18;100190.22;5093107;28;20035;-73
2022/06/30 07:13:21;;;;;;;6.50;1.20;;;;;;;19.41;64.90;100194.84;5091117;28;20049;-73
2022/06/30 07:15:46;;;;;;;5.50;1.23;;;;;;;19.29;65.60;100195.75;5092347;28;20031;-73
2022/06/30 07:18:12;;;;;;;7.25;1.30;;;;;;;19.18;65.93;100197.47;5088576;28;20572;-73
2022/06/30 07:20:38;;;;;;;8.15;1.30;;;;;;;19.07;66.32;100193.53;5082306;28;20032;-73
2022/06/30 07:23:03;;;;;;;7.45;1.27;;;;;;;19.02;66.08;100193.78;5109634;28;20047;-73
2022/06/30 07:25:29;;;;;;;8.77;1.02;;;;;;;18.92;66.13;100195.13;5092091;28;20039;-73
2022/06/30 07:27:54;;;;;;;5.68;1.17;;;;;;;18.82;66.15;100201.25;5106655;28;20503;-73
2022/06/30 07:30:20;;;;;;;8.23;1.20;;;;;;;18.77;66.43;100209.94;5082084;28;20042;-73
2022/06/30 07:32:45;;;;;;;6.93;0.98;;;;;;;18.66;67.10;100212.41;5108589;28;20035;-73
2022/06/30 07:35:11;;;;;;;6.38;1.52;;;;;;;18.56;67.43;100207.28;5070629;28;20458;-73
2022/06/30 07:37:40;;;;;;;4.97;1.20;;;;;;;18.47;67.86;100208.25;5077839;28;20035;-73
2022/06/30 07:40:06;;;;;;;6.68;1.25;;;;;;;18.40;68.17;100208.00;5093719;28;20023;-72
2022/06/30 07:42:31;;;;;;;8.02;1.15;;;;;;;18.32;68.41;100217.41;5110420;28;20110;-72
2022/06/30 07:44:57;;;;;;;7.30;1.00;;;;;;;18.24;68.98;100221.97;5118062;27;20065;-72
2022/06/30 07:47:22;;;;;;;6.90;1.20;;;;;;;18.18;69.23;100220.56;5109022;28;20042;-72
2022/06/30 07:49:48;;;;;;;6.50;1.17;;;;;;;18.12;69.89;100221.16;5099391;27;20036;-72
2022/06/30 07:52:14;;;;;;;5.93;1.40;;;;;;;18.05;70.03;100219.78;5092306;28;20024;-72
2022/06/30 07:54:39;;;;;;;9.90;1.40;;;;;;;18.05;70.73;100225.41;5097338;28;20066;-72
2022/06/30 07:57:05;;;;;;;7.78;1.52;;;;;;;18.05;70.81;100227.34;5081768;28;20031;-72
2022/06/30 07:59:31;;;;;;;8.95;1.00;;;;;;;18.11;70.63;100225.13;5079319;28;20070;-72
2022/06/30 08:01:56;;;;;;;9.32;1.60;;;;;;;18.14;70.97;100221.66;5095634;28;20028;-72
2022/06/30 08:04:22;;;;;;;8.13;1.80;;;;;;;18.22;71.09;100226.28;5081688;28;20040;-72
2022/06/30 08:06:47;;;;;;;4.75;1.33;;;;;;;18.29;71.19;100223.72;5074852;28;20043;-72
2022/06/30 08:09:13;;;;;;;7.63;1.35;;;;;;;18.36;70.06;100209.91;5098481;28;20038;-72
2022/06/30 08:11:38;;;;;;;5.43;1.05;;;;;;;18.43;69.95;100207.28;5097996;28;20120;-73
2022/06/30 08:14:04;;;;;;;8.77;1.48;;;;;;;18.52;69.13;100207.97;5091485;27;20101;-73
2022/06/30 08:16:30;;;;;;;6.80;1.25;;;;;;;18.56;69.64;100224.16;5108956;28;20096;-72
2022/06/30 08:18:56;;;;;;;8.93;1.85;;;;;;;18.57;69.87;100220.16;5064496;28;20023;-73
2022/06/30 08:21:21;;;;;;;9.07;1.30;;;;;;;18.59;70.67;100212.19;5088080;28;20039;-73
2022/06/30 08:23:47;;;;;;;9.23;1.42;;;;;;;18.58;71.48;100218.97;5093582;28;21260;-72
2022/06/30 08:26:12;;;;;;;12.80;1.60;;;;;;;18.55;71.72;100217.69;5081311;28;20502;-72
2022/06/30 08:28:38;;;;;;;7.85;1.73;;;;;;;18.54;72.24;100216.06;5106809;28;20086;-73
2022/06/30 08:31:03;;;;;;;5.65;1.02;;;;;;;18.54;72.21;100219.69;5095715;28;20118;-73
2022/06/30 08:33:29;;;;;;;4.28;0.93;;;;;;;18.56;72.78;100219.34;5086063;28;20030;-72
2022/06/30 08:35:54;;;;;;;7.07;1.40;;;;;;;18.58;72.71;100214.16;5079468;28;20119;-73
2022/06/30 08:38:21;;;;;;;5.28;1.10;;;;;;;18.61;72.72;100207.00;5093934;28;20040;-72
2022/06/30 08:43:31;;;;;;;9.55;1.52;;;;;;;18.85;74.57;100212.59;5090536;28;20024;-72
2022/06/30 08:45:57;;;;;;;6.28;1.10;;;;;;;19.05;70.24;100213.56;5094218;28;20047;-72
2022/06/30 08:48:22;;;;;;;9.57;1.35;;;;;;;19.35;69.96;100210.38;5092607;28;20384;-72
2022/06/30 08:50:48;;;;;;;7.22;1.23;;;;;;;19.64;68.02;100211.97;5088063;28;20031;-72
2022/06/30 08:53:15;;;;;;;11.25;1.40;;;;;;;19.94;68.02;100212.34;5094663;28;20469;-72
2022/06/30 08:55:41;;;;;;;9.25;1.27;;;;;;;20.21;65.72;100212.59;5065643;28;20130;-72
2022/06/30 08:58:07;;;;;;;9.10;1.55;;;;;;;20.42;63.18;100217.91;5097171;28;20039;-73
2022/06/30 09:00:34;;;;;;;8.60;1.38;;;;;;;20.70;62.67;100218.59;5089376;28;20046;-72
2022/06/30 09:03:00;;;;;;;6.28;1.17;;;;;;;20.94;61.13;100216.66;5097030;28;20034;-72
2022/06/30 09:05:26;;;;;;;8.80;1.30;;;;;;;21.14;61.72;100214.63;5104939;28;20511;-72
2022/06/30 09:07:51;;;;;;;6.25;1.20;;;;;;;21.37;60.74;100214.72;5100124;28;20027;-72
2022/06/30 09:10:17;;;;;;;7.93;1.38;;;;;;;21.63;60.13;100222.47;5061952;28;20012;-72
2022/06/30 09:13:01;;;;;;;5.50;1.17;;;;;;;21.94;57.35;100218.56;5091208;28;20035;-72
2022/06/30 09:15:38;;;;;;;7.07;1.05;;;;;;;22.22;56.97;100211.75;5107398;28;20061;-72
2022/06/30 09:18:03;;;;;;;5.10;0.82;;;;;;;22.43;55.18;100216.94;5081286;28;20023;-72
2022/06/30 09:20:38;;;;;;;7.72;1.10;;;;;;;22.64;54.61;100219.25;5092290;28;20157;-72
2022/06/30 09:23:24;;;;;;;6.63;1.15;;;;;;;22.73;54.41;100216.94;5095304;28;20028;-72
2022/06/30 09:25:56;;;;;;;4.53;1.02;;;;;;;22.85;52.59;100210.25;5056399;28;20127;-72
2022/06/30 09:28:54;;;;;;;5.50;1.10;;;;;;;23.01;52.83;100204.38;5091453;28;20141;-72
2022/06/30 09:31:36;;;;;;;5.38;1.00;;;;;;;23.17;50.46;100202.97;5105702;28;20036;-72
2022/06/30 09:34:19;;;;;;;3.50;0.77;;;;;;;23.29;49.34;100201.91;5072379;28;20028;-72
2022/06/30 09:36:46;;;;;;;5.78;1.08;;;;;;;23.34;49.28;100210.03;5082348;28;20039;-72
2022/06/30 09:39:13;;;;;;;4.25;1.20;;;;;;;23.48;49.88;100206.53;5105487;28;20040;-71
2022/06/30 09:41:39;;;;;;;5.57;0.82;;;;;;;23.53;48.39;100199.69;5088124;28;20451;-72
2022/06/30 09:44:06;;;;;;;3.85;0.70;;;;;;;23.58;47.44;100196.50;5104813;28;20063;-71
2022/06/30 09:46:33;;;;;;;5.97;0.85;;;;;;;23.71;49.14;100194.22;5079849;28;20032;-72
2022/06/30 09:48:58;;;;;;;7.18;1.02;;;;;;;23.88;49.96;100199.25;5058358;28;20027;-72
2022/06/30 09:51:24;;;;;;;4.93;1.00;;;;;;;24.02;48.27;100199.38;5074902;28;20388;-72
2022/06/30 09:54:10;;;;;;;3.63;0.80;;;;;;;24.19;48.19;100197.88;5098465;28;20031;-72
2022/06/30 09:56:35;;;;;;;3.95;0.90;;;;;;;24.24;47.76;100203.19;5115206;27;20054;-72
2022/06/30 09:59:01;;;;;;;6.15;0.68;;;;;;;24.30;46.19;100198.75;5089829;28;20024;-72
2022/06/30 10:01:26;;;;;;;4.20;0.73;;;;;;;24.41;45.57;100203.69;5078653;28;20437;-72
2022/06/30 10:03:59;;;;;;;6.80;1.00;;;;;;;24.46;47.48;100200.50;5081354;28;20656;-72
2022/06/30 10:06:24;;;;;;;6.43;0.73;;;;;;;24.53;46.05;100204.19;5076157;28;20028;-72
2022/06/30 10:08:50;;;;;;;4.15;0.98;;;;;;;24.64;47.11;100194.94;5066643;28;20085;-72
2022/06/30 10:11:15;;;;;;;4.70;0.95;;;;;;;24.83;46.76;100208.00;5087933;28;20028;-72
2022/06/30 10:13:42;;;;;;;3.28;0.70;;;;;;;24.96;46.37;100200.75;5073724;28;20476;-72
2022/06/30 10:16:08;;;;;;;5.68;0.95;;;;;;;25.07;44.42;100195.09;5118652;28;20055;-72
2022/06/30 10:18:38;;;;;;;3.75;0.90;;;;;;;25.27;44.64;100204.13;5096825;28;20027;-72
2022/06/30 10:21:04;;;;;;;7.07;0.85;;;;;;;25.35;43.47;100195.22;5078655;28;20088;-72
2022/06/30 10:23:30;;;;;;;3.83;0.73;;;;;;;25.50;43.46;100204.59;5078553;28;20479;-72
2022/06/30 10:25:55;;;;;;;6.80;0.90;;;;;;;25.57;42.88;100207.44;5094026;28;20028;-72
2022/06/30 10:28:22;;;;;;;3.72;0.82;;;;;;;25.56;43.86;100205.81;5079463;28;20572;-72
2022/06/30 10:31:07;;;;;;;2.58;0.65;;;;;;;25.57;43.09;100206.63;5093849;28;20064;-72
2022/06/30 10:33:37;;;;;;;3.72;0.55;;;;;;;25.56;40.90;100199.31;5110840;28;20081;-72
2022/06/30 10:36:29;;;;;;;3.70;0.50;;;;;;;25.61;41.48;100196.09;5109811;28;20112;-72
2022/06/30 10:39:08;;;;;;;3.53;0.60;;;;;;;25.61;42.52;100205.41;5091572;28;20022;-72
2022/06/30 10:41:44;;;;;;;4.00;0.73;;;;;;;25.64;42.29;100198.13;5093126;28;20388;-72
2022/06/30 10:44:23;;;;;;;3.33;0.50;;;;;;;25.69;43.17;100197.72;5113386;27;20441;-72
2022/06/30 10:46:49;;;;;;;4.03;0.68;;;;;;;25.78;41.96;100185.94;5078415;28;20396;-71
2022/06/30 10:49:14;;;;;;;3.67;0.50;;;;;;;25.88;41.61;100190.81;5118521;28;20034;-71
2022/06/30 10:51:40;;;;;;;3.55;0.85;;;;;;;26.05;40.76;100192.88;5099693;28;20032;-73
2022/06/30 10:54:06;;;;;;;5.60;0.80;;;;;;;26.05;39.35;100197.75;5097837;28;20429;-73
2022/06/30 10:56:51;;;;;;;4.97;0.80;;;;;;;26.17;38.96;100188.00;5064054;28;20040;-72
2022/06/30 10:59:17;;;;;;;3.28;0.82;;;;;;;26.24;38.98;100194.50;5117577;28;20023;-73
2022/06/30 11:02:11;;;;;;;4.03;1.00;;;;;;;26.24;38.78;100197.34;5071338;28;20035;-72
2022/06/30 11:04:37;;;;;;;2.55;0.52;;;;;;;26.38;40.51;100190.78;5116196;27;20031;-73
2022/06/30 11:07:05;;;;;;;4.28;0.70;;;;;;;26.41;38.83;100192.84;5108257;28;20092;-73
2022/06/30 11:10:00;;;;;;;3.42;0.60;;;;;;;26.56;39.41;100199.31;5121735;27;20511;-73
2022/06/30 11:12:31;;;;;;;3.58;0.52;;;;;;;26.69;38.88;100191.13;5101436;27;20052;-72
2022/06/30 11:14:58;;;;;;;3.00;0.65;;;;;;;26.82;38.35;100191.50;5121391;27;20118;-72
2022/06/30 11:17:28;;;;;;;1.73;0.38;;;;;;;26.96;38.64;100197.13;5092231;28;20040;-72
2022/06/30 11:20:12;;;;;;;2.05;0.40;;;;;;;27.20;36.96;100189.72;5078537;28;20176;-72
2022/06/30 11:22:38;;;;;;;3.20;0.60;;;;;;;27.38;37.39;100187.56;5094082;28;20380;-72
2022/06/30 11:27:17;;;;;;;2.67;0.40;;;;;;;27.58;38.16;100189.88;5094302;28;20035;-72
2022/06/30 11:27:57;;;;;;;1.77;0.40;;;;;;;27.78;36.47;100179.56;5100409;28;20114;-73
2022/06/30 11:30:27;;;;;;;2.20;0.50;;;;;;;27.93;34.81;100171.72;5077921;28;20036;-72
2022/06/30 11:32:52;;;;;;;1.98;0.40;;;;;;;28.09;35.96;100174.03;5097993;28;20398;-72
2022/06/30 11:35:24;;;;;;;1.77;0.40;;;;;;;28.27;35.25;100174.63;5101803;27;20023;-72